createdAt,value
2022-07-25T00:00:59.502Z,5.03
2022-07-25T00:05:04.729Z,4.80
2022-07-25T00:09:08.182Z,6.40
2022-07-25T00:13:11.662Z,5.78
2022-07-25T00:17:16.576Z,5.50
2022-07-25T00:21:19.701Z,5.68
2022-07-25T00:25:23.232Z,4.45
2022-07-25T00:29:26.962Z,4.18
2022-07-25T00:33:31.654Z,4.70
2022-07-25T00:37:35.064Z,4.55
2022-07-25T00:41:38.918Z,4.82
2022-07-25T00:45:42.173Z,5.45
2022-07-25T00:49:47.145Z,4.85
2022-07-25T00:53:50.279Z,4.65
2022-07-25T00:57:53.322Z,4.05
2022-07-25T01:01:56.902Z,5.05
2022-07-25T01:06:01.886Z,5.13
2022-07-25T01:10:05.974Z,4.03
2022-07-25T01:14:09.855Z,5.13
2022-07-25T01:18:13.448Z,5.22
2022-07-25T01:22:18.510Z,5.03
2022-07-25T01:26:22.364Z,5.10
2022-07-25T01:30:27.546Z,5.38
2022-07-25T01:34:30.833Z,4.70
2022-07-25T01:38:35.908Z,5.25
2022-07-25T01:42:39.396Z,5.00
2022-07-25T01:46:42.635Z,5.20
2022-07-25T01:50:46.423Z,4.20
2022-07-25T01:54:51.625Z,5.32
2022-07-25T01:58:54.776Z,4.35
2022-07-25T02:03:12.167Z,4.68
2022-07-25T02:07:15.691Z,4.57
2022-07-25T02:11:21.017Z,4.80
2022-07-25T02:15:24.361Z,4.32
2022-07-25T02:19:28.064Z,5.45
2022-07-25T02:23:31.508Z,4.88
2022-07-25T02:27:36.699Z,4.82
2022-07-25T02:31:40.251Z,3.95
2022-07-25T02:35:43.942Z,4.82
2022-07-25T02:39:47.274Z,4.25
2022-07-25T02:43:52.307Z,4.35
2022-07-25T02:47:56.054Z,4.25
2022-07-25T02:52:00.295Z,4.25
2022-07-25T02:56:03.851Z,4.97
2022-07-25T03:00:12.105Z,5.00
2022-07-25T03:04:16.295Z,4.70
2022-07-25T03:08:20.228Z,5.55
2022-07-25T03:12:23.778Z,4.88
2022-07-25T03:16:29.104Z,4.97
2022-07-25T03:20:32.683Z,4.80
2022-07-25T03:24:35.977Z,4.70
2022-07-25T03:28:39.489Z,5.28
2022-07-25T03:32:44.613Z,4.43
2022-07-25T03:36:48.085Z,4.95
2022-07-25T03:40:51.320Z,4.70
2022-07-25T03:44:54.817Z,4.43
2022-07-25T03:48:59.723Z,5.43
2022-07-25T03:53:03.284Z,5.32
2022-07-25T03:57:07.535Z,4.93
2022-07-25T04:01:11.111Z,3.90
2022-07-25T04:05:16.008Z,4.88
2022-07-25T04:09:19.500Z,4.90
2022-07-25T04:13:22.857Z,5.03
2022-07-25T04:17:26.554Z,4.63
2022-07-25T04:21:31.327Z,4.43
2022-07-25T04:25:34.758Z,4.95
2022-07-25T04:29:38.281Z,4.65
2022-07-25T04:33:42.629Z,4.60
2022-07-25T04:37:47.406Z,4.95
2022-07-25T04:41:50.768Z,5.03
2022-07-25T04:45:54.589Z,4.78
2022-07-25T04:49:58.047Z,4.78
2022-07-25T04:54:02.523Z,5.55
2022-07-25T04:58:07.063Z,5.10
2022-07-25T05:02:10.620Z,4.45
2022-07-25T05:06:13.745Z,4.03
2022-07-25T05:10:20.882Z,4.75
2022-07-25T05:14:24.497Z,5.00
2022-07-25T05:18:27.584Z,4.38
2022-07-25T05:22:30.736Z,5.05
2022-07-25T05:26:35.625Z,5.03
2022-07-25T05:30:40.056Z,4.13
2022-07-25T05:34:43.512Z,4.63
2022-07-25T05:38:47.176Z,5.32
2022-07-25T05:42:52.508Z,4.38
2022-07-25T05:46:55.701Z,5.65
2022-07-25T05:51:00.729Z,4.28
2022-07-25T05:55:04.426Z,4.63
2022-07-25T05:59:09.049Z,4.60
2022-07-25T06:03:12.359Z,4.68
2022-07-25T06:07:17.098Z,5.05
2022-07-25T06:11:20.792Z,4.72
2022-07-25T06:15:26.728Z,4.97
2022-07-25T06:19:30.843Z,4.20
2022-07-25T06:23:34.386Z,4.40
2022-07-25T06:27:38.984Z,7.35
2022-07-25T06:31:46.365Z,19.63
2022-07-25T06:35:50.824Z,18.77
2022-07-25T06:39:54.385Z,14.15
2022-07-25T06:43:57.431Z,6.18
2022-07-25T06:48:02.366Z,8.68
2022-07-25T06:52:06.094Z,7.07
2022-07-25T06:56:14.351Z,2.92
2022-07-25T07:00:20.569Z,3.08
2022-07-25T07:04:25.348Z,3.17
2022-07-25T07:08:28.867Z,2.92
2022-07-25T07:12:32.626Z,2.97
2022-07-25T07:16:36.730Z,2.65
2022-07-25T07:20:41.986Z,3.30
2022-07-25T07:24:48.175Z,3.20
2022-07-25T07:28:54.863Z,2.47
2022-07-25T07:32:58.711Z,2.42
2022-07-25T07:37:03.781Z,2.80
2022-07-25T07:41:07.485Z,2.42
2022-07-25T07:45:16.332Z,2.40
2022-07-25T07:49:19.560Z,3.03
2022-07-25T08:02:27.568Z,5.63
2022-07-25T08:06:31.272Z,3.30
2022-07-25T08:10:38.429Z,3.00
2022-07-25T08:14:42.005Z,2.78
2022-07-25T08:18:45.636Z,3.17
2022-07-25T08:22:54.477Z,3.13
2022-07-25T08:27:01.695Z,3.55
2022-07-25T08:31:05.378Z,5.07
2022-07-25T08:35:11.457Z,2.85
2022-07-25T08:39:15.263Z,4.38
2022-07-25T08:43:21.487Z,3.33
2022-07-25T08:47:25.109Z,2.97
2022-07-25T08:51:29.420Z,3.28
2022-07-25T08:55:32.968Z,2.65
2022-07-25T08:59:37.878Z,3.08
2022-07-25T09:03:41.436Z,3.67
2022-07-25T09:07:44.654Z,3.78
2022-07-25T09:11:49.006Z,3.03
2022-07-25T09:15:57.113Z,3.67
2022-07-25T09:20:00.761Z,3.60
2022-07-25T09:24:12.336Z,3.63
2022-07-25T09:28:18.216Z,2.97
2022-07-25T09:32:25.909Z,3.00
2022-07-25T09:36:29.616Z,3.28
2022-07-25T09:40:33.272Z,6.72
2022-07-25T09:44:36.436Z,3.67
2022-07-25T09:48:45.909Z,5.57
2022-07-25T09:52:49.801Z,4.35
2022-07-25T09:56:53.942Z,3.55
2022-07-25T10:01:02.617Z,5.97
2022-07-25T10:05:16.313Z,3.58
2022-07-25T10:09:19.938Z,3.00
2022-07-25T10:13:32.648Z,3.72
2022-07-25T10:17:37.110Z,3.25
2022-07-25T10:21:42.445Z,3.30
2022-07-25T10:25:49.105Z,3.38
2022-07-25T10:29:55.752Z,4.03
2022-07-25T10:34:01.622Z,2.97
2022-07-25T10:38:08.101Z,4.60
2022-07-25T10:42:15.794Z,3.58
2022-07-25T10:46:21.495Z,3.63
2022-07-25T10:50:53.580Z,4.00
2022-07-25T10:54:57.522Z,3.85
2022-07-25T10:59:02.613Z,4.13
2022-07-25T11:03:11.468Z,10.57
2022-07-25T11:07:18.584Z,3.90
2022-07-25T11:11:23.424Z,4.25
2022-07-25T11:15:27.337Z,3.75
2022-07-25T11:19:31.397Z,4.57
2022-07-25T11:23:34.873Z,4.65
2022-07-25T11:27:39.776Z,3.45
2022-07-25T11:31:42.997Z,3.92
2022-07-25T11:35:46.163Z,3.53
2022-07-25T11:39:50.027Z,4.13
2022-07-25T11:43:54.953Z,3.72
2022-07-25T11:48:08.269Z,3.65
2022-07-25T11:52:20.710Z,10.32
2022-07-25T12:00:51.312Z,3.40
2022-07-25T12:04:59.263Z,3.53
2022-07-25T12:09:17.997Z,4.22
2022-07-25T12:13:25.857Z,4.07
2022-07-25T12:17:30.679Z,3.50
2022-07-25T12:21:33.775Z,3.50
2022-07-25T12:25:38.382Z,4.07
2022-07-25T12:29:41.555Z,3.70
2022-07-25T12:33:46.479Z,3.75
2022-07-25T12:37:49.786Z,3.90
2022-07-25T12:41:54.694Z,3.03
2022-07-25T12:45:58.288Z,3.20
2022-07-25T12:50:02.893Z,3.17
2022-07-25T12:54:06.589Z,2.60
2022-07-25T12:58:10.479Z,3.22
2022-07-25T13:02:13.909Z,2.85
2022-07-25T13:06:20.923Z,5.55
2022-07-25T13:10:24.124Z,3.33
2022-07-25T13:14:27.508Z,2.42
2022-07-25T13:18:30.891Z,2.88
2022-07-25T13:22:38.056Z,3.38
2022-07-25T13:26:41.738Z,2.55
2022-07-25T13:30:44.842Z,2.63
2022-07-25T13:34:48.220Z,3.83
2022-07-25T13:38:52.800Z,2.83
2022-07-25T13:42:57.369Z,3.13
2022-07-25T13:47:00.605Z,3.63
2022-07-25T13:51:04.489Z,3.60
2022-07-25T13:55:10.559Z,3.58
2022-07-25T13:59:20.367Z,3.45
2022-07-25T14:03:24.284Z,3.93
2022-07-25T14:07:27.738Z,3.42
2022-07-25T14:11:33.731Z,3.20
2022-07-25T14:15:38.680Z,3.90
2022-07-25T14:19:44.123Z,3.33
2022-07-25T14:23:51.537Z,3.65
2022-07-25T14:27:59.066Z,3.88
2022-07-25T14:32:05.434Z,3.83
2022-07-25T14:36:13.397Z,4.35
2022-07-25T14:40:19.734Z,3.50
2022-07-25T14:44:27.301Z,4.10
2022-07-25T14:48:34.259Z,4.05
2022-07-25T14:52:39.526Z,4.00
2022-07-25T14:56:47.225Z,3.65
2022-07-25T15:00:53.835Z,4.07
2022-07-25T15:04:59.230Z,4.30
2022-07-25T15:09:05.978Z,3.45
2022-07-25T15:17:38.891Z,3.97
2022-07-25T15:21:47.291Z,4.13
2022-07-25T15:26:02.312Z,4.68
2022-07-25T15:30:10.046Z,3.47
2022-07-25T15:34:16.987Z,4.25
2022-07-25T15:38:22.661Z,4.30
2022-07-25T15:42:29.369Z,3.80
2022-07-25T15:46:34.362Z,4.13
2022-07-25T15:50:44.563Z,4.05
2022-07-25T15:54:50.278Z,3.92
2022-07-25T15:58:56.845Z,3.38
2022-07-25T16:03:02.090Z,3.70
2022-07-25T16:07:10.196Z,3.53
2022-07-25T16:11:16.558Z,3.88
2022-07-25T16:15:22.987Z,3.75
2022-07-25T16:19:29.021Z,3.65
2022-07-25T16:23:37.867Z,3.88
2022-07-25T16:27:42.400Z,3.55
2022-07-25T16:31:46.601Z,3.95
2022-07-25T16:35:51.169Z,3.35
2022-07-25T16:39:56.733Z,3.60
2022-07-25T16:44:00.995Z,3.85
2022-07-25T16:48:08.524Z,4.38
2022-07-25T16:52:13.332Z,4.65
2022-07-25T16:56:19.790Z,3.80
2022-07-25T17:00:23.726Z,3.85
2022-07-25T17:04:29.785Z,4.22
2022-07-25T17:08:33.609Z,3.90
2022-07-25T17:12:38.549Z,4.30
2022-07-25T17:16:45.347Z,4.75
2022-07-25T17:20:50.834Z,4.90
2022-07-25T17:24:57.386Z,4.45
2022-07-25T17:29:03.183Z,4.13
2022-07-25T17:33:11.593Z,4.38
2022-07-25T17:37:15.214Z,4.82
2022-07-25T17:41:19.171Z,4.35
2022-07-25T17:45:26.972Z,4.25
2022-07-25T17:49:32.240Z,4.60
2022-07-25T17:53:35.982Z,4.35
2022-07-25T17:57:41.897Z,4.88
2022-07-25T18:01:47.117Z,4.60
2022-07-25T18:05:53.289Z,4.55
2022-07-25T18:09:58.597Z,4.00
2022-07-25T18:14:05.117Z,3.70
2022-07-25T18:18:18.475Z,4.65
2022-07-25T18:22:25.588Z,3.97
2022-07-25T18:26:31.975Z,4.90
2022-07-25T18:30:37.053Z,4.45
2022-07-25T18:34:44.200Z,4.30
2022-07-25T18:38:47.998Z,4.10
2022-07-25T18:42:53.889Z,4.30
2022-07-25T18:47:00.826Z,3.83
2022-07-25T18:51:09.546Z,4.70
2022-07-25T18:55:13.421Z,4.95
2022-07-25T18:59:16.969Z,3.92
2022-07-25T19:03:20.571Z,4.10
2022-07-25T19:07:26.519Z,4.30
2022-07-25T19:11:29.529Z,4.03
2022-07-25T19:15:33.276Z,4.22
2022-07-25T19:19:37.081Z,4.20
2022-07-25T19:23:44.678Z,4.38
2022-07-25T19:27:52.194Z,4.07
2022-07-25T19:31:55.750Z,4.97
2022-07-25T19:35:59.374Z,4.65
2022-07-25T19:40:04.610Z,4.50
2022-07-25T19:44:08.786Z,4.78
2022-07-25T19:48:13.222Z,4.88
2022-07-25T19:52:16.862Z,4.05
2022-07-25T19:56:21.426Z,5.22
2022-07-25T20:00:24.821Z,5.35
2022-07-25T20:04:28.620Z,4.65
2022-07-25T20:08:32.370Z,5.90
2022-07-25T20:12:37.291Z,5.60
2022-07-25T20:16:41.419Z,5.78
2022-07-25T20:20:45.378Z,6.97
2022-07-25T20:24:49.150Z,5.60
2022-07-25T20:28:53.891Z,5.32
2022-07-25T20:32:57.343Z,5.40
2022-07-25T20:37:00.888Z,4.95
2022-07-25T20:41:04.474Z,5.50
2022-07-25T20:45:11.633Z,5.97
2022-07-25T20:49:17.730Z,5.55
2022-07-25T20:53:21.567Z,6.18
2022-07-25T20:57:24.807Z,5.25
2022-07-25T21:01:30.007Z,6.13
2022-07-25T21:05:33.871Z,6.38
2022-07-25T21:09:37.023Z,5.07
2022-07-25T21:13:40.648Z,5.25
2022-07-25T21:17:45.893Z,5.55
2022-07-25T21:21:49.509Z,5.45
2022-07-25T21:25:52.659Z,5.45
2022-07-25T21:29:56.169Z,4.65
2022-07-25T21:34:01.950Z,6.13
2022-07-25T21:38:05.182Z,6.38
2022-07-25T21:42:10.485Z,6.57
2022-07-25T21:46:17.047Z,6.57
2022-07-25T21:50:43.586Z,6.68
2022-07-25T21:54:47.773Z,6.88
2022-07-25T21:58:51.392Z,6.38
2022-07-25T22:02:54.957Z,6.55
2022-07-25T22:06:59.864Z,6.30
2022-07-25T22:11:16.272Z,7.25
2022-07-25T22:15:27.201Z,6.03
2022-07-25T22:19:30.709Z,5.57
2022-07-25T22:23:35.275Z,6.40
2022-07-25T22:27:40.191Z,4.75
2022-07-25T22:31:45.007Z,5.82
2022-07-25T22:35:48.106Z,6.18
2022-07-25T22:39:56.521Z,6.57
2022-07-25T22:44:02.815Z,5.82
2022-07-25T22:48:06.221Z,6.85
2022-07-25T22:52:10.119Z,5.97
2022-07-25T22:56:15.293Z,6.97
2022-07-25T23:00:19.126Z,7.07
2022-07-25T23:04:22.489Z,6.00
2022-07-25T23:08:26.179Z,6.70
2022-07-25T23:12:31.120Z,4.97
2022-07-25T23:16:43.523Z,3.58
2022-07-25T23:24:52.353Z,3.65
2022-07-25T23:28:57.523Z,3.40
2022-07-25T23:33:00.610Z,4.20
2022-07-25T23:37:04.707Z,4.65
2022-07-25T23:41:08.349Z,4.05
2022-07-25T23:45:12.966Z,4.50
2022-07-25T23:49:16.657Z,4.97
2022-07-25T23:53:20.248Z,4.55
2022-07-25T23:57:23.406Z,4.47
